Time;durP1;ratioP1;P1;durP2;ratioP2;P2;SDS_P1;SDS_P2;PMS_P1;PMS_P2;Temp;Humidity;BMP_temperature;BMP_pressure;BME280_temperature;BME280_humidity;BME280_pressure;Samples;Min_cycle;Max_cycle;Signal;HPM_P1;HPM_P2
2022/01/03 00:00:25;;;;;;;22.33;6.03;;;;;;;9.21;89.14;100883.41;1034643;28;20664;-76
2022/01/03 00:00:57;;;;;;;17.90;3.72;;;;;;;9.20;89.50;100898.53;1038988;28;20291;-76
2022/01/03 00:01:30;;;;;;;16.67;4.05;;;;;;;9.18;89.81;100902.41;1039021;28;20279;-76
2022/01/03 00:02:02;;;;;;;17.85;3.92;;;;;;;9.14;89.69;100898.53;1032076;28;20318;-77
2022/01/03 00:02:34;;;;;;;23.80;4.55;;;;;;;9.14;90.16;100895.88;1028495;28;20362;-76
2022/01/03 00:03:08;;;;;;;18.48;3.83;;;;;;;9.16;89.55;100877.91;1030367;28;20296;-75
2022/01/03 00:03:40;;;;;;;16.77;3.67;;;;;;;9.16;89.76;100901.81;1032840;28;20868;-76
2022/01/03 00:04:14;;;;;;;14.82;4.05;;;;;;;9.19;89.59;100896.09;1039504;28;20287;-77
2022/01/03 00:04:46;;;;;;;16.63;4.43;;;;;;;9.18;89.01;100897.94;1039404;28;20290;-77
2022/01/03 00:05:17;;;;;;;22.55;4.50;;;;;;;9.19;89.07;100898.75;1035547;28;20285;-77
2022/01/03 00:05:49;;;;;;;25.63;3.97;;;;;;;9.14;89.27;100893.22;1032219;28;20283;-77
2022/01/03 00:06:20;;;;;;;19.25;4.43;;;;;;;9.10;88.95;100889.34;1035298;28;20760;-78
2022/01/03 00:06:52;;;;;;;21.35;4.50;;;;;;;9.08;89.53;100894.06;1035731;28;20304;-77
2022/01/03 00:07:25;;;;;;;24.10;5.15;;;;;;;9.05;89.67;100889.16;1036387;28;20273;-77
2022/01/03 00:07:57;;;;;;;22.50;5.63;;;;;;;9.02;89.79;100895.66;1032782;28;20290;-77
2022/01/03 00:08:29;;;;;;;23.33;4.07;;;;;;;9.04;89.78;100895.47;1035501;28;20283;-77
2022/01/03 00:09:02;;;;;;;22.38;3.97;;;;;;;8.98;90.22;100889.94;1028395;28;20296;-77
2022/01/03 00:09:35;;;;;;;21.60;3.78;;;;;;;8.95;89.97;100901.00;1028577;28;20274;-77
2022/01/03 00:10:08;;;;;;;26.52;4.22;;;;;;;8.93;90.78;100888.94;1023217;29;20291;-77
2022/01/03 00:10:40;;;;;;;21.15;4.28;;;;;;;8.96;90.29;100899.97;1025322;28;20290;-78
2022/01/03 00:11:14;;;;;;;23.80;4.65;;;;;;;8.96;90.12;100899.97;1032388;28;20293;-78
2022/01/03 00:11:45;;;;;;;13.85;4.20;;;;;;;8.93;90.48;100895.06;1033106;28;20296;-78
2022/01/03 00:12:19;;;;;;;20.20;4.22;;;;;;;8.93;90.23;100902.22;1035405;28;20356;-77
2022/01/03 00:12:50;;;;;;;16.70;3.60;;;;;;;8.91;89.99;100907.72;1031430;28;20339;-77
2022/01/03 00:13:22;;;;;;;21.38;4.15;;;;;;;8.90;90.24;100900.78;1030098;28;20709;-77
2022/01/03 00:13:54;;;;;;;23.48;4.97;;;;;;;8.87;90.94;100911.81;1028289;28;20289;-78
2022/01/03 00:14:27;;;;;;;14.00;3.50;;;;;;;8.88;90.46;100902.00;1033796;28;20283;-76
2022/01/03 00:14:59;;;;;;;21.77;4.53;;;;;;;8.83;90.72;100910.59;1035149;28;20613;-77
2022/01/03 00:15:31;;;;;;;21.25;4.50;;;;;;;8.83;91.10;100907.94;1035468;28;20284;-77
2022/01/03 00:16:03;;;;;;;19.63;4.95;;;;;;;8.83;91.42;100909.78;1034826;28;20649;-75
2022/01/03 00:16:34;;;;;;;22.13;5.82;;;;;;;8.86;90.56;100915.50;1035063;28;20281;-76
2022/01/03 00:17:06;;;;;;;23.50;5.28;;;;;;;8.88;90.85;100873.63;1031554;28;20337;-78
2022/01/03 00:17:38;;;;;;;21.13;4.90;;;;;;;8.91;90.79;100901.59;1036000;28;20284;-78
2022/01/03 00:18:09;;;;;;;20.75;5.03;;;;;;;8.93;90.96;100910.19;1039494;28;20292;-77
2022/01/03 00:18:41;;;;;;;15.82;4.55;;;;;;;8.97;90.50;100914.88;1035427;28;20288;-77
2022/01/03 00:19:12;;;;;;;22.17;4.82;;;;;;;8.96;90.27;100915.91;1030738;28;20784;-77
2022/01/03 00:19:44;;;;;;;20.63;4.95;;;;;;;8.95;90.59;100914.28;1027779;28;20274;-76
2022/01/03 00:20:16;;;;;;;21.95;4.60;;;;;;;8.94;90.47;100912.63;1031080;28;20296;-76
2022/01/03 00:20:57;;;;;;;19.38;5.03;;;;;;;8.95;90.93;100914.28;1035378;28;20602;-76
2022/01/03 00:21:37;;;;;;;;;;;;;;;8.98;90.47;100916.50;1037237;28;20368;-76
2022/01/03 00:22:11;;;;;;;24.80;4.55;;;;;;;8.93;90.83;100916.31;1034753;28;19932;-77
2022/01/03 00:22:56;;;;;;;12.80;4.82;;;;;;;8.95;91.01;100919.59;1031159;28;20292;-77
2022/01/03 00:23:29;;;;;;;17.95;3.00;;;;;;;8.96;90.61;100909.78;1034991;28;20279;-77
2022/01/03 00:24:09;;;;;;;18.85;4.63;;;;;;;8.96;90.56;100905.28;1033535;28;20374;-77
2022/01/03 00:24:45;;;;;;;17.08;3.80;;;;;;;8.96;90.84;100915.91;1035482;28;20292;-77
2022/01/03 00:25:19;;;;;;;23.33;3.40;;;;;;;8.95;90.91;100919.59;1037009;28;20288;-75
2022/01/03 00:25:51;;;;;;;16.77;3.70;;;;;;;8.99;90.77;100917.34;1039186;28;20767;-75
2022/01/03 00:26:24;;;;;;;22.25;4.20;;;;;;;9.01;90.63;100909.97;1039087;28;20283;-76
2022/01/03 00:27:00;;;;;;;16.65;3.67;;;;;;;8.99;90.63;100918.16;1038936;28;20794;-76
2022/01/03 00:27:50;;;;;;;15.13;3.25;;;;;;;8.98;90.97;100919.19;1038697;28;20288;-75
2022/01/03 00:28:33;;;;;;;21.80;3.60;;;;;;;8.99;91.05;100926.13;1038696;28;20288;-76
2022/01/03 00:29:10;;;;;;;14.73;3.42;;;;;;;9.00;91.52;100911.00;1030488;28;20281;-76
2022/01/03 00:29:47;;;;;;;18.88;3.90;;;;;;;9.03;91.18;100913.25;1026676;28;20389;-76
2022/01/03 00:30:21;;;;;;;15.45;3.65;;;;;;;9.04;91.28;100932.66;1030056;28;20285;-77
2022/01/03 00:30:57;;;;;;;17.27;3.85;;;;;;;9.05;91.03;100916.53;1033407;28;20281;-76
2022/01/03 00:31:40;;;;;;;17.13;3.50;;;;;;;9.14;90.32;100928.59;1031098;28;20294;-76
2022/01/03 00:32:12;;;;;;;14.18;3.55;;;;;;;9.12;89.95;100913.88;1030568;28;20280;-76
2022/01/03 00:32:44;;;;;;;18.90;3.80;;;;;;;9.12;90.45;100925.31;1033753;28;20394;-77
2022/01/03 00:33:18;;;;;;;20.75;4.38;;;;;;;9.13;90.02;100926.16;1030380;28;20277;-76
2022/01/03 00:33:54;;;;;;;20.88;5.43;;;;;;;9.12;89.83;100925.31;1031500;28;20288;-76
2022/01/03 00:34:27;;;;;;;15.73;3.97;;;;;;;9.10;90.24;100927.38;1032064;28;20591;-76
2022/01/03 00:35:00;;;;;;;22.80;4.60;;;;;;;9.11;90.39;100925.53;1035053;28;20280;-76
2022/01/03 00:35:34;;;;;;;29.05;4.75;;;;;;;9.11;90.34;100931.66;1034773;28;20269;-76
2022/01/03 00:36:06;;;;;;;15.90;3.55;;;;;;;9.12;89.92;100919.19;1030727;28;20286;-76
2022/01/03 00:36:38;;;;;;;21.63;3.97;;;;;;;9.12;89.83;100932.47;1030718;28;20293;-76
2022/01/03 00:37:10;;;;;;;20.50;5.13;;;;;;;9.14;89.93;100938.41;1028552;28;20294;-77
2022/01/03 00:37:44;;;;;;;18.10;5.03;;;;;;;9.15;90.09;100926.75;1031412;28;20277;-76
2022/01/03 00:38:18;;;;;;;21.90;4.75;;;;;;;9.18;89.48;100918.38;1030769;28;20285;-76
2022/01/03 00:38:49;;;;;;;18.05;3.35;;;;;;;9.15;89.83;100910.81;1031926;28;20281;-76
2022/01/03 00:39:21;;;;;;;29.15;4.82;;;;;;;9.18;89.90;100923.69;1036047;28;20814;-76
2022/01/03 00:39:53;;;;;;;12.35;3.95;;;;;;;9.14;89.91;100917.16;1038839;28;20322;-77
2022/01/03 00:40:25;;;;;;;25.67;4.28;;;;;;;9.11;89.93;100928.19;1034764;28;20284;-76
2022/01/03 00:40:59;;;;;;;20.10;4.43;;;;;;;9.14;89.99;100927.78;1037043;28;20363;-76
2022/01/03 00:41:30;;;;;;;21.48;5.07;;;;;;;9.08;90.00;100917.97;1038673;28;20283;-77
2022/01/03 00:42:02;;;;;;;23.48;4.40;;;;;;;9.08;89.98;100925.94;1032764;28;20293;-76
2022/01/03 00:42:34;;;;;;;24.50;4.85;;;;;;;9.06;90.30;100925.34;1030645;28;20289;-76
2022/01/03 00:43:06;;;;;;;23.75;6.10;;;;;;;9.08;89.79;100920.63;1026373;28;20345;-76
2022/01/03 00:43:38;;;;;;;20.58;4.03;;;;;;;9.05;89.92;100923.69;1030262;28;20288;-75
2022/01/03 00:44:10;;;;;;;20.95;4.70;;;;;;;8.99;89.96;100925.31;1035724;28;20288;-76
2022/01/03 00:44:42;;;;;;;23.50;4.95;;;;;;;8.96;90.60;100931.84;1037998;28;20284;-75
2022/01/03 00:45:14;;;;;;;18.88;4.22;;;;;;;8.93;90.75;100932.25;1034756;28;20280;-76
2022/01/03 00:45:45;;;;;;;21.50;4.25;;;;;;;8.92;90.33;100925.31;1035675;28;20404;-76
2022/01/03 00:46:18;;;;;;;25.73;4.57;;;;;;;8.90;90.35;100927.34;1037231;28;20767;-76
2022/01/03 00:46:52;;;;;;;24.30;4.50;;;;;;;8.89;90.21;100915.09;1038636;28;20315;-75
2022/01/03 00:47:23;;;;;;;20.67;4.45;;;;;;;8.90;90.60;100922.03;1038936;28;20402;-76
2022/01/03 00:47:55;;;;;;;18.17;4.72;;;;;;;8.87;90.73;100922.44;1035442;28;20277;-76
2022/01/03 00:48:29;;;;;;;20.98;4.90;;;;;;;8.82;90.88;100929.41;1036302;28;20281;-76
2022/01/03 00:49:01;;;;;;;16.83;4.97;;;;;;;8.80;90.90;100921.63;1039531;28;20276;-76
2022/01/03 00:49:38;;;;;;;17.40;4.63;;;;;;;8.82;91.01;100930.22;1035763;28;20284;-76
2022/01/03 00:50:12;;;;;;;14.15;4.55;;;;;;;8.83;90.64;100939.81;1036072;28;20668;-75
2022/01/03 00:50:43;;;;;;;23.83;5.32;;;;;;;8.86;90.13;100926.13;1035608;28;20323;-76
2022/01/03 00:51:19;;;;;;;21.63;5.65;;;;;;;8.83;90.94;100926.53;1037535;28;20281;-78
2022/01/03 00:51:51;;;;;;;18.95;3.40;;;;;;;8.82;90.53;100940.00;1035883;28;20781;-78
2022/01/03 00:52:22;;;;;;;23.02;4.13;;;;;;;8.79;91.19;100935.13;1037323;28;20277;-77
2022/01/03 00:52:54;;;;;;;16.77;3.97;;;;;;;8.78;90.39;100934.28;1040317;28;20287;-77
2022/01/03 00:53:25;;;;;;;16.10;4.47;;;;;;;8.77;91.17;100930.00;1040450;28;20272;-78
2022/01/03 00:53:57;;;;;;;21.13;4.57;;;;;;;8.77;90.84;100927.34;1040337;28;20295;-78
2022/01/03 00:54:28;;;;;;;18.63;3.88;;;;;;;8.80;90.89;100932.25;1039926;28;20284;-77
2022/01/03 00:55:01;;;;;;;23.13;5.45;;;;;;;8.80;90.78;100937.56;1040514;28;20335;-77
2022/01/03 00:55:33;;;;;;;19.35;5.93;;;;;;;8.82;91.18;100929.41;1036462;28;20277;-77
2022/01/03 00:56:09;;;;;;;16.77;3.95;;;;;;;8.87;91.51;100933.06;1036798;28;20292;-77
2022/01/03 00:56:46;;;;;;;16.88;4.28;;;;;;;8.86;90.95;100928.78;1040325;28;20279;-78
2022/01/03 00:57:30;;;;;;;20.70;5.70;;;;;;;8.92;89.94;100933.28;1038199;28;20277;-77
2022/01/03 00:58:09;;;;;;;22.15;4.53;;;;;;;8.93;90.61;100937.56;1039972;28;20701;-77
2022/01/03 00:58:48;;;;;;;22.90;5.10;;;;;;;8.93;90.15;100932.25;1036372;28;20402;-77
2022/01/03 00:59:50;;;;;;;25.48;3.97;;;;;;;8.91;90.08;100922.84;1035744;28;20295;-76
2022/01/03 01:00:22;;;;;;;19.27;3.33;;;;;;;8.91;90.37;100922.84;1028648;28;20292;-76
2022/01/03 01:00:55;;;;;;;23.65;4.05;;;;;;;8.93;89.98;100924.28;1031020;28;20270;-76
2022/01/03 01:01:27;;;;;;;18.25;3.97;;;;;;;8.88;89.84;100924.09;1039611;28;20279;-76
2022/01/03 01:02:01;;;;;;;19.63;4.03;;;;;;;8.85;90.08;100929.81;1035787;28;20808;-76
2022/01/03 01:02:36;;;;;;;22.55;3.85;;;;;;;8.83;90.46;100929.19;1032827;28;20863;-75
2022/01/03 01:03:15;;;;;;;11.25;3.55;;;;;;;8.82;90.81;100929.41;1032984;28;20364;-77
2022/01/03 01:03:48;;;;;;;27.33;4.78;;;;;;;8.80;90.47;100926.94;1035923;28;20327;-76
2022/01/03 01:04:21;;;;;;;23.63;4.28;;;;;;;8.82;90.57;100929.41;1037709;28;20277;-76
2022/01/03 01:04:55;;;;;;;13.13;3.67;;;;;;;8.85;90.43;100924.50;1033578;28;20412;-76
2022/01/03 01:05:27;;;;;;;29.38;4.57;;;;;;;8.85;89.98;100929.81;1029114;28;20623;-76
2022/01/03 01:06:00;;;;;;;16.23;4.20;;;;;;;8.86;90.42;100936.75;1032855;28;20360;-77
2022/01/03 01:06:33;;;;;;;27.38;5.55;;;;;;;8.84;89.98;100930.81;1032514;28;20332;-76
2022/01/03 01:07:07;;;;;;;24.05;3.53;;;;;;;8.85;90.48;100937.78;1031874;28;20293;-76
2022/01/03 01:07:39;;;;;;;24.92;6.70;;;;;;;8.83;90.55;100941.66;1031824;28;20280;-76
2022/01/03 01:08:11;;;;;;;24.08;4.22;;;;;;;8.81;90.41;100938.38;1029871;28;20769;-75
2022/01/03 01:08:44;;;;;;;24.98;4.18;;;;;;;8.83;90.69;100931.03;1032327;28;20281;-76
2022/01/03 01:09:19;;;;;;;27.55;5.28;;;;;;;8.81;90.01;100933.88;1032520;28;20372;-77
2022/01/03 01:09:51;;;;;;;32.20;5.18;;;;;;;8.83;90.78;100915.91;1032081;28;20660;-77
2022/01/03 01:10:28;;;;;;;20.45;4.60;;;;;;;8.87;89.64;100933.06;1026647;28;20286;-77
2022/01/03 01:11:02;;;;;;;23.65;5.50;;;;;;;8.86;90.21;100938.59;1029461;28;20286;-77
2022/01/03 01:11:34;;;;;;;19.25;5.22;;;;;;;8.88;90.41;100933.88;1028754;28;20317;-78
2022/01/03 01:12:06;;;;;;;23.88;5.43;;;;;;;8.85;90.40;100935.13;1025674;28;20830;-77
2022/01/03 01:12:38;;;;;;;19.27;4.85;;;;;;;8.86;89.96;100936.75;1029169;28;20348;-78
2022/01/03 01:13:11;;;;;;;17.13;4.18;;;;;;;8.86;90.11;100942.06;1030433;28;20297;-77
2022/01/03 01:13:44;;;;;;;22.77;4.18;;;;;;;8.85;90.26;100927.16;1034369;28;20368;-78
2022/01/03 01:14:15;;;;;;;21.02;4.97;;;;;;;8.90;89.72;100937.97;1034489;28;20745;-77
2022/01/03 01:14:50;;;;;;;19.45;4.53;;;;;;;8.88;90.14;100937.38;1036362;28;20276;-77
2022/01/03 01:15:23;;;;;;;24.88;4.35;;;;;;;8.87;89.39;100932.25;1039247;28;20290;-76
2022/01/03 01:15:55;;;;;;;20.27;4.75;;;;;;;8.85;90.24;100935.13;1037017;28;20543;-76
2022/01/03 01:16:28;;;;;;;33.35;6.22;;;;;;;8.90;89.98;100931.84;1037898;28;20379;-77
2022/01/03 01:16:59;;;;;;;20.70;4.38;;;;;;;8.91;89.32;100934.31;1033545;28;20636;-76
2022/01/03 01:17:31;;;;;;;18.63;4.00;;;;;;;8.89;89.95;100939.00;1033699;28;20501;-77
2022/01/03 01:18:04;;;;;;;32.88;5.72;;;;;;;8.90;89.66;100937.97;1033875;28;20281;-78
2022/01/03 01:18:37;;;;;;;28.13;4.97;;;;;;;8.91;89.33;100925.50;1028237;28;20758;-78
2022/01/03 01:19:09;;;;;;;30.08;5.80;;;;;;;8.94;89.73;100922.44;1033422;28;20372;-77
2022/01/03 01:19:41;;;;;;;18.67;3.90;;;;;;;8.94;89.65;100941.84;1029302;28;20278;-77
2022/01/03 01:20:15;;;;;;;31.38;6.10;;;;;;;8.95;89.48;100946.16;1027790;28;20279;-78
2022/01/03 01:20:48;;;;;;;23.10;5.00;;;;;;;8.99;89.30;100927.97;1029332;28;20282;-77
2022/01/03 01:21:20;;;;;;;26.33;5.00;;;;;;;8.98;89.25;100935.13;1027924;28;20301;-77
2022/01/03 01:21:52;;;;;;;23.92;4.97;;;;;;;8.99;89.32;100939.41;1029379;28;20282;-77
2022/01/03 01:22:24;;;;;;;23.20;4.93;;;;;;;8.99;89.40;100939.41;1031797;28;20281;-78
2022/01/03 01:22:56;;;;;;;19.42;5.18;;;;;;;8.98;88.98;100944.91;1028650;28;20290;-78
2022/01/03 01:23:27;;;;;;;28.73;5.43;;;;;;;8.96;89.46;100941.66;1028325;28;20282;-77
2022/01/03 01:23:59;;;;;;;28.83;5.53;;;;;;;8.94;89.06;100938.38;1027644;28;20677;-78
2022/01/03 01:24:44;;;;;;;30.92;5.43;;;;;;;8.92;89.39;100935.94;1031460;28;20274;-78
2022/01/03 01:28:01;;;;;;;20.42;4.75;;;;;;;8.95;89.60;100940.84;1038868;28;20057;-77
2022/01/03 01:28:32;;;;;;;24.25;5.95;;;;;;;8.96;89.40;100929.19;1040347;28;20290;-78
2022/01/03 01:29:04;;;;;;;27.58;5.22;;;;;;;9.01;89.63;100943.69;1032534;28;20769;-77
2022/01/03 01:29:39;;;;;;;24.10;4.55;;;;;;;8.99;89.24;100941.25;1034775;28;20427;-77
2022/01/03 01:30:11;;;;;;;23.73;4.43;;;;;;;9.02;89.42;100940.03;1032653;28;20808;-76
2022/01/03 01:30:43;;;;;;;26.77;5.78;;;;;;;9.01;89.06;100949.00;1032190;28;20285;-77
2022/01/03 01:31:19;;;;;;;22.70;4.88;;;;;;;8.96;89.57;100941.66;1035208;28;20619;-75
2022/01/03 01:31:54;;;;;;;23.92;5.47;;;;;;;8.92;89.83;100941.25;1035077;28;20326;-76
2022/01/03 01:32:27;;;;;;;27.60;5.43;;;;;;;8.94;89.51;100956.97;1032523;28;20289;-76
2022/01/03 01:33:02;;;;;;;22.05;4.30;;;;;;;8.93;89.88;100942.88;1031745;28;20282;-77
2022/01/03 01:33:34;;;;;;;25.70;5.60;;;;;;;8.94;89.26;100944.50;1025621;28;20282;-77
2022/01/03 01:34:22;;;;;;;16.88;4.78;;;;;;;8.94;89.79;100944.50;1028607;28;20286;-77
2022/01/03 01:34:54;;;;;;;29.30;5.68;;;;;;;8.97;89.53;100933.47;1027375;28;20354;-77
2022/01/03 01:35:35;;;;;;;22.63;4.47;;;;;;;8.98;89.51;100935.13;1026410;28;20671;-78
2022/01/03 01:36:07;;;;;;;26.55;4.63;;;;;;;8.98;89.69;100945.75;1032011;28;20285;-77
2022/01/03 01:36:42;;;;;;;25.10;4.88;;;;;;;8.96;89.89;100937.16;1033640;28;20649;-77
2022/01/03 01:37:18;;;;;;;26.77;5.28;;;;;;;8.96;89.86;100945.13;1035879;28;20300;-77
2022/01/03 01:37:53;;;;;;;30.58;6.13;;;;;;;9.01;89.08;100944.50;1032963;28;20851;-78
2022/01/03 01:38:30;;;;;;;22.92;5.03;;;;;;;9.03;89.31;100944.31;1031048;28;20284;-77
2022/01/03 01:39:05;;;;;;;27.15;6.55;;;;;;;9.03;89.61;100944.31;1032726;28;20666;-77
2022/01/03 01:39:40;;;;;;;31.10;5.25;;;;;;;9.04;88.99;100932.66;1032539;28;20313;-75
2022/01/03 01:40:13;;;;;;;24.83;4.65;;;;;;;9.06;88.62;100946.59;1031550;28;20282;-76
2022/01/03 01:40:46;;;;;;;24.35;7.13;;;;;;;9.07;88.99;100942.91;1032893;28;20285;-76
2022/01/03 01:41:19;;;;;;;30.15;5.88;;;;;;;9.05;89.09;100942.31;1035297;28;20319;-76
2022/01/03 01:41:55;;;;;;;21.98;6.65;;;;;;;9.02;89.24;100945.34;1032530;28;20277;-76
2022/01/03 01:42:27;;;;;;;21.48;5.43;;;;;;;9.02;89.12;100945.34;1031776;28;20281;-75
2022/01/03 01:42:58;;;;;;;29.15;5.75;;;;;;;9.03;89.06;100944.31;1029781;28;20286;-76
2022/01/03 01:43:35;;;;;;;25.15;5.05;;;;;;;9.02;88.89;100950.66;1027986;28;20294;-75
2022/01/03 01:44:09;;;;;;;20.13;4.85;;;;;;;9.01;89.10;100943.69;1028642;28;20291;-76
2022/01/03 01:44:46;;;;;;;30.20;5.40;;;;;;;8.98;89.67;100935.13;1033132;28;20638;-76
2022/01/03 01:45:21;;;;;;;26.15;5.68;;;;;;;9.01;89.16;100949.81;1035086;28;20311;-76
2022/01/03 01:45:52;;;;;;;26.83;4.90;;;;;;;9.02;89.58;100934.69;1035384;28;20300;-75
2022/01/03 01:46:25;;;;;;;21.73;4.88;;;;;;;8.99;89.37;100944.72;1033071;28;20289;-76
2022/01/03 01:47:05;;;;;;;29.60;6.38;;;;;;;8.99;89.61;100947.38;1031427;28;20820;-76
2022/01/03 01:47:40;;;;;;;20.00;4.57;;;;;;;9.01;89.27;100952.50;1027459;28;20274;-76
2022/01/03 01:48:15;;;;;;;17.58;4.35;;;;;;;9.04;89.59;100943.28;1033929;28;20285;-76
2022/01/03 01:48:48;;;;;;;30.42;6.82;;;;;;;9.03;89.22;100936.34;1031554;28;20281;-75
2022/01/03 01:49:24;;;;;;;25.08;5.40;;;;;;;9.03;88.99;100934.50;1027720;28;20762;-76
2022/01/03 01:49:56;;;;;;;25.05;4.82;;;;;;;9.05;89.23;100942.31;1027135;28;20349;-77
2022/01/03 01:50:28;;;;;;;32.22;5.50;;;;;;;9.03;89.59;100947.78;1023560;28;21154;-76
2022/01/03 01:51:00;;;;;;;24.25;5.82;;;;;;;9.03;89.43;100939.81;1028763;28;20292;-76
2022/01/03 01:51:36;;;;;;;32.85;5.63;;;;;;;9.01;89.24;100944.50;1031128;28;20289;-76
2022/01/03 01:52:19;;;;;;;25.13;6.38;;;;;;;9.00;89.35;100942.88;1031923;28;20281;-76
2022/01/03 01:52:53;;;;;;;38.33;6.95;;;;;;;9.02;89.80;100945.34;1033946;28;20273;-76
2022/01/03 01:53:26;;;;;;;28.60;5.35;;;;;;;9.01;89.75;100943.69;1034500;28;20780;-76
2022/01/03 01:53:58;;;;;;;39.25;8.25;;;;;;;8.99;89.43;100941.25;1034148;28;20277;-76
2022/01/03 01:54:34;;;;;;;35.80;5.47;;;;;;;8.99;89.45;100947.38;1036679;28;20280;-77
2022/01/03 01:55:11;;;;;;;26.92;6.28;;;;;;;8.99;89.42;100936.75;1033635;28;20277;-76
2022/01/03 01:55:48;;;;;;;29.88;5.95;;;;;;;9.01;89.65;100946.34;1033421;28;20298;-76
2022/01/03 01:56:22;;;;;;;26.27;6.05;;;;;;;9.01;89.73;100944.50;1028840;28;20285;-78
2022/01/03 01:57:18;;;;;;;33.47;6.47;;;;;;;9.02;89.48;100940.03;1031465;28;20287;-78
2022/01/03 01:57:52;;;;;;;39.92;7.00;;;;;;;9.01;89.42;100949.00;1034319;28;20791;-78
2022/01/03 01:58:54;;;;;;;25.33;5.82;;;;;;;9.01;89.29;100944.50;1036386;28;20976;-77
2022/01/03 01:59:32;;;;;;;30.85;5.38;;;;;;;9.06;89.69;100946.59;1039330;28;20275;-78
2022/01/03 02:00:10;;;;;;;28.98;5.32;;;;;;;9.06;89.46;100942.09;1040012;28;20056;-78
2022/01/03 02:00:45;;;;;;;26.83;5.80;;;;;;;9.04;89.19;100943.28;1039809;28;20652;-77
2022/01/03 02:01:20;;;;;;;27.90;5.10;;;;;;;9.05;88.90;100950.28;1036837;28;20379;-78
2022/01/03 02:02:03;;;;;;;35.72;7.40;;;;;;;9.01;89.14;100952.50;1034647;28;20273;-78
2022/01/03 02:02:54;;;;;;;34.65;7.03;;;;;;;9.02;89.43;100948.81;1028774;28;20282;-77
2022/01/03 02:03:34;;;;;;;35.47;7.65;;;;;;;9.04;89.47;100945.94;1033483;28;20642;-77
2022/01/03 02:04:12;;;;;;;25.70;5.10;;;;;;;9.02;89.28;100955.97;1037395;28;20041;-78
2022/01/03 02:04:47;;;;;;;32.33;6.60;;;;;;;8.99;89.40;100926.13;1040093;28;20046;-78
2022/01/03 02:05:36;;;;;;;34.25;6.28;;;;;;;9.03;89.25;100939.00;1040166;28;20272;-77
2022/01/03 02:06:17;;;;;;;29.80;6.22;;;;;;;9.01;88.72;100933.06;1040237;28;20280;-77
2022/01/03 02:06:48;;;;;;;36.33;7.00;;;;;;;8.99;88.96;100952.69;1040126;28;20272;-77
2022/01/03 02:07:41;;;;;;;26.50;5.32;;;;;;;8.97;89.35;100954.72;1032429;28;20042;-77
2022/01/03 02:08:27;;;;;;;27.17;5.40;;;;;;;9.04;88.73;100948.59;1037163;28;20397;-77
2022/01/03 02:09:39;;;;;;;26.92;4.85;;;;;;;9.02;89.27;100948.00;1034020;28;20281;-78
2022/01/03 02:10:12;;;;;;;30.73;5.70;;;;;;;8.99;88.86;100947.38;1023882;28;20726;-77
2022/01/03 02:11:02;;;;;;;29.20;5.85;;;;;;;9.02;88.60;100945.34;1022186;29;20427;-77
2022/01/03 02:11:49;;;;;;;28.02;5.15;;;;;;;8.99;89.32;100942.06;1033841;28;20274;-77
2022/01/03 02:12:25;;;;;;;24.35;5.55;;;;;;;9.04;88.72;100943.28;1033740;28;20362;-78
2022/01/03 02:12:57;;;;;;;25.38;6.10;;;;;;;9.03;88.55;100952.28;1033122;28;21506;-77
2022/01/03 02:13:30;;;;;;;34.03;5.10;;;;;;;9.01;88.83;100951.66;1038963;28;20292;-78
2022/01/03 02:14:03;;;;;;;26.17;6.05;;;;;;;9.03;88.62;100954.94;1035829;28;20325;-77
2022/01/03 02:14:37;;;;;;;28.52;5.07;;;;;;;9.03;88.38;100953.09;1031637;28;20281;-77
2022/01/03 02:15:11;;;;;;;32.25;5.75;;;;;;;8.99;88.48;100960.66;1030239;28;20365;-77
2022/01/03 02:15:46;;;;;;;29.92;5.57;;;;;;;8.98;88.68;100961.69;1029321;28;20283;-77
2022/01/03 02:16:18;;;;;;;23.70;6.43;;;;;;;8.98;89.11;100953.72;1030304;28;20282;-77
2022/01/03 02:16:50;;;;;;;25.27;5.43;;;;;;;8.98;89.09;100956.38;1035067;28;20280;-78
2022/01/03 02:17:22;;;;;;;29.75;6.45;;;;;;;8.94;88.71;100954.31;1036097;28;20276;-78
2022/01/03 02:17:53;;;;;;;31.70;5.72;;;;;;;8.95;88.97;100963.94;1032299;28;20292;-77
2022/01/03 02:18:26;;;;;;;27.95;6.45;;;;;;;8.92;89.25;100957.19;1038738;28;20276;-77
2022/01/03 02:18:57;;;;;;;29.02;6.63;;;;;;;8.89;89.27;100957.59;1031834;28;20288;-77
2022/01/03 02:19:29;;;;;;;31.02;6.88;;;;;;;8.90;89.54;100961.88;1031888;28;20641;-77
2022/01/03 02:20:05;;;;;;;33.08;6.63;;;;;;;8.92;88.92;100959.84;1037373;28;20280;-77
2022/01/03 02:20:37;;;;;;;33.47;7.13;;;;;;;8.97;88.84;100959.22;1039851;28;20707;-77
2022/01/03 02:21:08;;;;;;;38.55;6.93;;;;;;;8.95;88.69;100956.78;1034219;28;20593;-77
2022/01/03 02:21:40;;;;;;;28.35;5.60;;;;;;;8.93;88.68;100953.50;1032969;28;20645;-78
2022/01/03 02:22:13;;;;;;;27.00;5.85;;;;;;;8.96;88.67;100966.38;1035548;28;20283;-77
2022/01/03 02:22:44;;;;;;;32.05;6.28;;;;;;;8.94;88.68;100954.31;1032866;28;20320;-76
2022/01/03 02:23:16;;;;;;;28.73;6.28;;;;;;;8.96;88.95;100962.91;1039235;28;20288;-76
2022/01/03 02:23:47;;;;;;;31.05;6.35;;;;;;;8.94;89.00;100952.50;1031979;28;20277;-76
2022/01/03 02:24:19;;;;;;;35.08;7.07;;;;;;;8.95;88.54;100954.13;1031949;28;20669;-76
2022/01/03 02:24:50;;;;;;;33.15;6.93;;;;;;;8.96;88.76;100955.75;1032811;28;20297;-76
2022/01/03 02:25:23;;;;;;;41.83;7.05;;;;;;;8.98;88.31;100961.69;1034967;28;20288;-76
2022/01/03 02:25:55;;;;;;;35.35;7.97;;;;;;;8.97;88.37;100968.00;1031248;28;20281;-76
2022/01/03 02:26:30;;;;;;;32.25;6.13;;;;;;;8.94;89.05;100967.59;1028137;28;20333;-77
2022/01/03 02:27:02;;;;;;;26.15;5.80;;;;;;;8.93;88.69;100968.63;1026693;28;20316;-77
2022/01/03 02:27:35;;;;;;;34.78;6.43;;;;;;;8.93;89.02;100964.13;1023702;28;20366;-76
2022/01/03 02:28:06;;;;;;;30.27;6.38;;;;;;;8.91;89.38;100960.88;1029514;28;20282;-76
2022/01/03 02:28:38;;;;;;;37.70;6.07;;;;;;;8.91;89.05;100960.88;1028739;28;20289;-76
2022/01/03 02:29:09;;;;;;;33.38;6.75;;;;;;;8.92;88.98;100957.19;1031567;28;20290;-76
2022/01/03 02:29:43;;;;;;;33.38;7.65;;;;;;;8.94;89.27;100973.75;1035808;28;20283;-76
2022/01/03 02:30:23;;;;;;;35.72;6.57;;;;;;;8.93;89.39;100963.31;1035629;28;20791;-78
2022/01/03 02:30:54;;;;;;;35.22;8.07;;;;;;;8.92;89.56;100962.50;1031863;28;20277;-77
2022/01/03 02:31:26;;;;;;;34.38;7.35;;;;;;;8.93;89.30;100968.63;1031671;28;20292;-77
2022/01/03 02:31:58;;;;;;;27.17;6.15;;;;;;;8.94;89.05;100963.13;1031698;28;20661;-77
2022/01/03 02:32:30;;;;;;;41.22;7.15;;;;;;;8.95;89.55;100974.56;1033852;28;20285;-77
2022/01/03 02:33:03;;;;;;;34.95;6.60;;;;;;;8.94;89.30;100965.78;1035535;28;20281;-76
2022/01/03 02:33:35;;;;;;;31.35;6.68;;;;;;;8.94;88.93;100968.44;1031642;28;20299;-76
2022/01/03 02:34:07;;;;;;;26.20;6.65;;;;;;;8.94;89.22;100980.88;1029578;28;20649;-76
2022/01/03 02:34:38;;;;;;;25.13;6.35;;;;;;;8.94;89.16;100984.38;1027007;28;20905;-76
2022/01/03 02:35:10;;;;;;;31.38;6.15;;;;;;;8.95;89.10;100971.91;1023654;28;20302;-76
2022/01/03 02:35:43;;;;;;;32.63;6.70;;;;;;;8.94;89.60;100971.09;1027904;28;20666;-76
2022/01/03 02:36:16;;;;;;;23.30;7.47;;;;;;;8.93;89.50;100973.94;1032339;28;20291;-76
2022/01/03 02:36:48;;;;;;;30.65;6.85;;;;;;;8.93;88.86;100977.41;1032711;28;20281;-76
2022/01/03 02:37:21;;;;;;;27.77;5.95;;;;;;;8.92;89.25;100977.63;1032363;28;20281;-76
2022/01/03 02:37:54;;;;;;;29.08;6.85;;;;;;;8.95;89.26;100982.53;1031401;28;20286;-77
2022/01/03 02:38:26;;;;;;;28.77;6.80;;;;;;;8.94;89.09;100976.41;1033309;28;20289;-77
2022/01/03 02:38:58;;;;;;;26.48;6.32;;;;;;;8.93;89.12;100979.25;1038647;28;20292;-77
2022/01/03 02:39:29;;;;;;;29.15;6.78;;;;;;;8.93;89.18;100982.72;1034578;28;20305;-78
2022/01/03 02:40:01;;;;;;;25.77;6.05;;;;;;;8.92;88.99;100975.78;1040421;28;20276;-78
2022/01/03 02:40:35;;;;;;;33.75;7.32;;;;;;;8.92;89.25;100978.44;1039133;28;20280;-78
2022/01/03 02:41:06;;;;;;;36.03;7.72;;;;;;;8.91;89.61;100987.44;1031271;28;20292;-76
2022/01/03 02:41:38;;;;;;;22.35;6.05;;;;;;;8.88;89.48;100985.19;1027199;28;20285;-76
2022/01/03 02:42:10;;;;;;;33.25;5.80;;;;;;;8.85;90.24;100963.50;1027490;28;20285;-76
2022/01/03 02:42:42;;;;;;;32.92;8.30;;;;;;;8.92;89.60;100978.44;1031416;28;20289;-76